South Streator, Illinois
Current Conditions -  °F | °C
As of 5:15 AM on Monday 22 Dec 2014 (Local Time) from KPNT Reporting Station
Overcast Overcast  
Wind Chill: 25°   Ceiling: 8000
Heat Index: 34°   Visibility: 7mi
Dew Point: 31°   Wind: 12mph
Humidity: 91%   Direction: 120°ESE
Pressure: 29.91"   Gusts: NA
Location:  41.1182°N, 88.8294°W
Report Text: KPNT 221115Z AUTO 12010KT 7SM SCT060 SCT070 OVC080 01/00 A2991 RMK AO2 T00091004
Loading
Personal Weather Stations






























Interactive Weather Map New forecast layout! Learn more

10-Day Weather Forecast

Advertisements
Track Severe Weather on mobile